sensor_id;sensor_type;location;lat;lon;timestamp;temperature;humidity
27559;DHT22;15002;52.028;5.670;2023-08-08T00:01:50;17.50;99.90
27559;DHT22;15002;52.028;5.670;2023-08-08T00:04:15;17.70;99.90
27559;DHT22;15002;52.028;5.670;2023-08-08T00:06:41;17.70;99.90
27559;DHT22;15002;52.028;5.670;2023-08-08T00:09:07;17.60;99.90
27559;DHT22;15002;52.028;5.670;2023-08-08T00:11:32;17.60;99.90
27559;DHT22;15002;52.028;5.670;2023-08-08T00:13:58;17.70;99.90
27559;DHT22;15002;52.028;5.670;2023-08-08T00:16:24;17.70;99.90
27559;DHT22;15002;52.028;5.670;2023-08-08T00:18:49;17.70;99.90
27559;DHT22;15002;52.028;5.670;2023-08-08T00:21:17;17.70;99.90
27559;DHT22;15002;52.028;5.670;2023-08-08T00:23:43;17.70;99.90
27559;DHT22;15002;52.028;5.670;2023-08-08T00:26:08;17.70;99.90
27559;DHT22;15002;52.028;5.670;2023-08-08T00:28:34;17.70;99.90
27559;DHT22;15002;52.028;5.670;2023-08-08T00:31:00;17.70;99.90
27559;DHT22;15002;52.028;5.670;2023-08-08T00:33:25;17.80;99.90
27559;DHT22;15002;52.028;5.670;2023-08-08T00:35:51;17.80;99.90
27559;DHT22;15002;52.028;5.670;2023-08-08T00:38:16;17.70;99.90
27559;DHT22;15002;52.028;5.670;2023-08-08T00:40:44;17.80;99.90
27559;DHT22;15002;52.028;5.670;2023-08-08T00:43:10;17.90;99.90
27559;DHT22;15002;52.028;5.670;2023-08-08T00:45:35;17.90;99.90
27559;DHT22;15002;52.028;5.670;2023-08-08T00:48:01;17.90;99.90
27559;DHT22;15002;52.028;5.670;2023-08-08T00:50:27;17.90;99.90
27559;DHT22;15002;52.028;5.670;2023-08-08T00:52:53;17.90;99.90
27559;DHT22;15002;52.028;5.670;2023-08-08T00:55:19;17.90;99.90
27559;DHT22;15002;52.028;5.670;2023-08-08T00:57:45;17.90;99.90
27559;DHT22;15002;52.028;5.670;2023-08-08T01:00:11;18.00;99.90
27559;DHT22;15002;52.028;5.670;2023-08-08T01:02:38;18.00;99.90
27559;DHT22;15002;52.028;5.670;2023-08-08T01:05:04;18.20;99.90
27559;DHT22;15002;52.028;5.670;2023-08-08T01:07:43;18.10;99.90
27559;DHT22;15002;52.028;5.670;2023-08-08T01:10:16;18.10;99.90
27559;DHT22;15002;52.028;5.670;2023-08-08T01:12:46;18.00;99.90
27559;DHT22;15002;52.028;5.670;2023-08-08T01:15:14;17.90;99.90
27559;DHT22;15002;52.028;5.670;2023-08-08T01:17:42;17.90;99.90
27559;DHT22;15002;52.028;5.670;2023-08-08T01:20:09;17.90;99.90
27559;DHT22;15002;52.028;5.670;2023-08-08T01:22:39;17.90;99.90
27559;DHT22;15002;52.028;5.670;2023-08-08T01:25:07;17.80;99.90
27559;DHT22;15002;52.028;5.670;2023-08-08T01:27:33;17.80;99.90
27559;DHT22;15002;52.028;5.670;2023-08-08T01:29:59;17.70;99.90
27559;DHT22;15002;52.028;5.670;2023-08-08T01:32:25;17.70;99.90
27559;DHT22;15002;52.028;5.670;2023-08-08T01:34:51;17.70;99.90
27559;DHT22;15002;52.028;5.670;2023-08-08T01:37:39;17.80;99.90
27559;DHT22;15002;52.028;5.670;2023-08-08T01:40:08;17.70;99.90
27559;DHT22;15002;52.028;5.670;2023-08-08T01:42:35;17.70;99.90
27559;DHT22;15002;52.028;5.670;2023-08-08T01:45:02;17.70;99.90
27559;DHT22;15002;52.028;5.670;2023-08-08T01:47:28;17.60;99.90
27559;DHT22;15002;52.028;5.670;2023-08-08T01:49:53;17.60;99.90
27559;DHT22;15002;52.028;5.670;2023-08-08T01:52:19;17.60;99.90
27559;DHT22;15002;52.028;5.670;2023-08-08T01:54:44;17.60;99.90
27559;DHT22;15002;52.028;5.670;2023-08-08T01:57:10;17.60;99.90
27559;DHT22;15002;52.028;5.670;2023-08-08T01:59:36;17.60;99.90
27559;DHT22;15002;52.028;5.670;2023-08-08T02:02:01;17.60;99.90
27559;DHT22;15002;52.028;5.670;2023-08-08T02:04:27;17.50;99.90
27559;DHT22;15002;52.028;5.670;2023-08-08T02:06:52;17.60;99.90
27559;DHT22;15002;52.028;5.670;2023-08-08T02:09:18;17.50;99.90
27559;DHT22;15002;52.028;5.670;2023-08-08T02:11:44;17.50;99.90
27559;DHT22;15002;52.028;5.670;2023-08-08T02:14:09;17.60;99.90
27559;DHT22;15002;52.028;5.670;2023-08-08T02:16:35;17.60;99.90
27559;DHT22;15002;52.028;5.670;2023-08-08T02:19:01;17.50;99.90
27559;DHT22;15002;52.028;5.670;2023-08-08T02:21:26;17.40;99.90
27559;DHT22;15002;52.028;5.670;2023-08-08T02:23:52;17.40;99.90
27559;DHT22;15002;52.028;5.670;2023-08-08T02:26:18;17.40;99.90
27559;DHT22;15002;52.028;5.670;2023-08-08T02:28:44;17.30;99.90
27559;DHT22;15002;52.028;5.670;2023-08-08T02:31:09;17.30;99.90
27559;DHT22;15002;52.028;5.670;2023-08-08T02:33:35;17.30;99.90
27559;DHT22;15002;52.028;5.670;2023-08-08T02:36:00;17.20;99.90
27559;DHT22;15002;52.028;5.670;2023-08-08T02:38:26;17.30;99.90
27559;DHT22;15002;52.028;5.670;2023-08-08T02:40:52;17.30;99.90
27559;DHT22;15002;52.028;5.670;2023-08-08T02:43:18;17.30;99.90
27559;DHT22;15002;52.028;5.670;2023-08-08T02:45:44;17.30;99.90
27559;DHT22;15002;52.028;5.670;2023-08-08T02:48:09;17.40;99.90
27559;DHT22;15002;52.028;5.670;2023-08-08T02:50:35;17.40;99.90
27559;DHT22;15002;52.028;5.670;2023-08-08T02:53:00;17.30;99.90
27559;DHT22;15002;52.028;5.670;2023-08-08T02:55:26;17.30;99.90
27559;DHT22;15002;52.028;5.670;2023-08-08T02:57:52;17.50;99.90
27559;DHT22;15002;52.028;5.670;2023-08-08T03:00:17;17.40;99.90
27559;DHT22;15002;52.028;5.670;2023-08-08T03:02:43;17.40;99.90
27559;DHT22;15002;52.028;5.670;2023-08-08T03:05:08;17.40;99.90
27559;DHT22;15002;52.028;5.670;2023-08-08T03:07:34;17.40;99.90
27559;DHT22;15002;52.028;5.670;2023-08-08T03:10:00;17.20;99.90
27559;DHT22;15002;52.028;5.670;2023-08-08T03:12:26;17.20;99.90
27559;DHT22;15002;52.028;5.670;2023-08-08T03:14:51;17.30;99.90
27559;DHT22;15002;52.028;5.670;2023-08-08T03:17:17;17.40;99.90
27559;DHT22;15002;52.028;5.670;2023-08-08T03:19:43;17.40;99.90
27559;DHT22;15002;52.028;5.670;2023-08-08T03:22:09;17.30;99.90
27559;DHT22;15002;52.028;5.670;2023-08-08T03:24:34;17.30;99.90
27559;DHT22;15002;52.028;5.670;2023-08-08T03:27:00;17.40;99.90
27559;DHT22;15002;52.028;5.670;2023-08-08T03:29:26;17.40;99.90
27559;DHT22;15002;52.028;5.670;2023-08-08T03:31:51;17.40;99.90
27559;DHT22;15002;52.028;5.670;2023-08-08T03:34:17;17.40;99.90
27559;DHT22;15002;52.028;5.670;2023-08-08T03:36:43;17.40;99.90
27559;DHT22;15002;52.028;5.670;2023-08-08T03:39:08;17.40;99.90
27559;DHT22;15002;52.028;5.670;2023-08-08T03:41:34;17.50;99.90
27559;DHT22;15002;52.028;5.670;2023-08-08T03:44:00;17.40;99.90
27559;DHT22;15002;52.028;5.670;2023-08-08T03:46:28;17.40;99.90
27559;DHT22;15002;52.028;5.670;2023-08-08T03:48:53;17.40;99.90
27559;DHT22;15002;52.028;5.670;2023-08-08T03:51:19;17.40;99.90
27559;DHT22;15002;52.028;5.670;2023-08-08T03:53:44;17.40;99.90
27559;DHT22;15002;52.028;5.670;2023-08-08T03:56:10;17.30;99.90
27559;DHT22;15002;52.028;5.670;2023-08-08T03:58:37;17.30;99.90
27559;DHT22;15002;52.028;5.670;2023-08-08T04:01:02;17.30;99.90
27559;DHT22;15002;52.028;5.670;2023-08-08T04:03:28;17.20;99.90
27559;DHT22;15002;52.028;5.670;2023-08-08T04:05:54;17.20;99.90
27559;DHT22;15002;52.028;5.670;2023-08-08T04:08:19;17.30;99.90
27559;DHT22;15002;52.028;5.670;2023-08-08T04:10:46;17.30;99.90
27559;DHT22;15002;52.028;5.670;2023-08-08T04:13:12;17.30;99.90
27559;DHT22;15002;52.028;5.670;2023-08-08T04:15:38;17.40;99.90
27559;DHT22;15002;52.028;5.670;2023-08-08T04:18:05;17.30;99.90
27559;DHT22;15002;52.028;5.670;2023-08-08T04:20:33;17.30;99.90
27559;DHT22;15002;52.028;5.670;2023-08-08T04:22:59;17.30;99.90
27559;DHT22;15002;52.028;5.670;2023-08-08T04:25:24;17.20;99.90
27559;DHT22;15002;52.028;5.670;2023-08-08T04:27:50;17.30;99.90
27559;DHT22;15002;52.028;5.670;2023-08-08T04:30:16;17.20;99.90
27559;DHT22;15002;52.028;5.670;2023-08-08T04:32:41;17.10;99.90
27559;DHT22;15002;52.028;5.670;2023-08-08T04:35:07;17.20;99.90
27559;DHT22;15002;52.028;5.670;2023-08-08T04:37:32;17.20;99.90
27559;DHT22;15002;52.028;5.670;2023-08-08T04:39:58;17.20;99.90
27559;DHT22;15002;52.028;5.670;2023-08-08T04:42:24;17.20;99.90
27559;DHT22;15002;52.028;5.670;2023-08-08T04:44:49;17.30;99.90
27559;DHT22;15002;52.028;5.670;2023-08-08T04:47:15;17.20;99.90
27559;DHT22;15002;52.028;5.670;2023-08-08T04:49:40;17.30;99.90
27559;DHT22;15002;52.028;5.670;2023-08-08T04:52:06;17.30;99.90
27559;DHT22;15002;52.028;5.670;2023-08-08T04:54:32;17.30;99.90
27559;DHT22;15002;52.028;5.670;2023-08-08T04:56:57;17.30;99.90
27559;DHT22;15002;52.028;5.670;2023-08-08T04:59:23;17.30;99.90
27559;DHT22;15002;52.028;5.670;2023-08-08T05:01:49;17.40;99.90
27559;DHT22;15002;52.028;5.670;2023-08-08T05:04:14;17.40;99.90
27559;DHT22;15002;52.028;5.670;2023-08-08T05:06:40;17.40;99.90
27559;DHT22;15002;52.028;5.670;2023-08-08T05:09:05;17.40;99.90
27559;DHT22;15002;52.028;5.670;2023-08-08T05:11:34;17.40;99.90
27559;DHT22;15002;52.028;5.670;2023-08-08T05:14:00;17.50;99.90
27559;DHT22;15002;52.028;5.670;2023-08-08T05:16:26;17.50;99.90
27559;DHT22;15002;52.028;5.670;2023-08-08T05:18:51;17.60;99.90
27559;DHT22;15002;52.028;5.670;2023-08-08T05:21:17;17.60;99.90
27559;DHT22;15002;52.028;5.670;2023-08-08T05:23:43;17.50;99.90
27559;DHT22;15002;52.028;5.670;2023-08-08T05:26:08;17.60;99.90
27559;DHT22;15002;52.028;5.670;2023-08-08T05:28:34;17.70;99.90
27559;DHT22;15002;52.028;5.670;2023-08-08T05:30:59;17.60;99.90
27559;DHT22;15002;52.028;5.670;2023-08-08T05:33:25;17.70;99.90
27559;DHT22;15002;52.028;5.670;2023-08-08T05:35:51;17.80;99.90
27559;DHT22;15002;52.028;5.670;2023-08-08T05:38:16;17.80;99.90
27559;DHT22;15002;52.028;5.670;2023-08-08T05:40:42;17.90;99.90
27559;DHT22;15002;52.028;5.670;2023-08-08T05:43:07;17.90;99.90
27559;DHT22;15002;52.028;5.670;2023-08-08T05:45:33;17.90;99.90
27559;DHT22;15002;52.028;5.670;2023-08-08T05:47:59;17.90;99.90
27559;DHT22;15002;52.028;5.670;2023-08-08T05:50:27;18.00;99.90
27559;DHT22;15002;52.028;5.670;2023-08-08T05:52:53;18.10;99.90
27559;DHT22;15002;52.028;5.670;2023-08-08T05:55:18;18.10;99.90
27559;DHT22;15002;52.028;5.670;2023-08-08T05:57:44;18.10;99.90
27559;DHT22;15002;52.028;5.670;2023-08-08T06:00:10;18.30;99.90
27559;DHT22;15002;52.028;5.670;2023-08-08T06:02:37;18.40;99.90
27559;DHT22;15002;52.028;5.670;2023-08-08T06:05:04;18.40;99.90
27559;DHT22;15002;52.028;5.670;2023-08-08T06:07:29;18.60;99.90
27559;DHT22;15002;52.028;5.670;2023-08-08T06:09:55;18.60;99.90
27559;DHT22;15002;52.028;5.670;2023-08-08T06:12:21;18.70;99.90
27559;DHT22;15002;52.028;5.670;2023-08-08T06:14:46;18.70;99.90
27559;DHT22;15002;52.028;5.670;2023-08-08T06:17:12;18.80;99.90
27559;DHT22;15002;52.028;5.670;2023-08-08T06:19:38;18.90;99.90
27559;DHT22;15002;52.028;5.670;2023-08-08T06:22:04;18.90;99.90
27559;DHT22;15002;52.028;5.670;2023-08-08T06:24:29;19.00;99.90
27559;DHT22;15002;52.028;5.670;2023-08-08T06:26:56;19.10;99.90
27559;DHT22;15002;52.028;5.670;2023-08-08T06:29:21;19.00;99.90
27559;DHT22;15002;52.028;5.670;2023-08-08T06:31:47;19.20;99.90
27559;DHT22;15002;52.028;5.670;2023-08-08T06:34:12;19.30;99.90
27559;DHT22;15002;52.028;5.670;2023-08-08T06:36:38;19.50;99.90
27559;DHT22;15002;52.028;5.670;2023-08-08T06:39:04;19.70;99.90
27559;DHT22;15002;52.028;5.670;2023-08-08T06:41:31;19.70;99.90
27559;DHT22;15002;52.028;5.670;2023-08-08T06:43:56;19.90;99.90
27559;DHT22;15002;52.028;5.670;2023-08-08T06:46:22;20.10;99.90
27559;DHT22;15002;52.028;5.670;2023-08-08T06:48:49;20.30;99.90
27559;DHT22;15002;52.028;5.670;2023-08-08T06:51:16;20.80;99.90
27559;DHT22;15002;52.028;5.670;2023-08-08T06:53:41;21.30;99.90
27559;DHT22;15002;52.028;5.670;2023-08-08T06:56:07;21.60;99.90
27559;DHT22;15002;52.028;5.670;2023-08-08T06:58:32;22.00;99.90
27559;DHT22;15002;52.028;5.670;2023-08-08T07:00:58;22.10;99.90
27559;DHT22;15002;52.028;5.670;2023-08-08T07:03:23;22.70;99.90
27559;DHT22;15002;52.028;5.670;2023-08-08T07:05:49;22.70;99.90
27559;DHT22;15002;52.028;5.670;2023-08-08T07:08:18;23.10;99.90
27559;DHT22;15002;52.028;5.670;2023-08-08T07:10:44;23.30;99.90
27559;DHT22;15002;52.028;5.670;2023-08-08T07:13:09;24.30;99.90
27559;DHT22;15002;52.028;5.670;2023-08-08T07:15:35;25.10;99.90
27559;DHT22;15002;52.028;5.670;2023-08-08T07:18:01;25.60;99.90
27559;DHT22;15002;52.028;5.670;2023-08-08T07:20:26;25.30;99.90
27559;DHT22;15002;52.028;5.670;2023-08-08T07:22:53;25.20;99.90
27559;DHT22;15002;52.028;5.670;2023-08-08T07:25:18;25.00;99.90
27559;DHT22;15002;52.028;5.670;2023-08-08T07:27:44;24.90;99.90
27559;DHT22;15002;52.028;5.670;2023-08-08T07:30:10;25.80;99.90
27559;DHT22;15002;52.028;5.670;2023-08-08T07:32:37;26.30;98.60
27559;DHT22;15002;52.028;5.670;2023-08-08T07:35:03;26.60;96.10
27559;DHT22;15002;52.028;5.670;2023-08-08T07:37:31;26.70;97.30
27559;DHT22;15002;52.028;5.670;2023-08-08T07:39:57;26.90;96.90
27559;DHT22;15002;52.028;5.670;2023-08-08T07:42:23;27.80;94.60
27559;DHT22;15002;52.028;5.670;2023-08-08T07:44:49;27.60;94.30
27559;DHT22;15002;52.028;5.670;2023-08-08T07:47:14;27.80;92.10
27559;DHT22;15002;52.028;5.670;2023-08-08T07:49:40;27.30;93.40
27559;DHT22;15002;52.028;5.670;2023-08-08T07:52:06;27.10;94.10
27559;DHT22;15002;52.028;5.670;2023-08-08T07:54:32;26.80;94.90
27559;DHT22;15002;52.028;5.670;2023-08-08T07:56:58;26.80;93.30
27559;DHT22;15002;52.028;5.670;2023-08-08T07:59:23;26.50;93.40
27559;DHT22;15002;52.028;5.670;2023-08-08T08:01:49;26.80;93.10
27559;DHT22;15002;52.028;5.670;2023-08-08T08:04:15;26.60;92.40
27559;DHT22;15002;52.028;5.670;2023-08-08T08:06:40;26.20;93.00
27559;DHT22;15002;52.028;5.670;2023-08-08T08:09:06;26.20;93.80
27559;DHT22;15002;52.028;5.670;2023-08-08T08:11:31;26.50;93.50
27559;DHT22;15002;52.028;5.670;2023-08-08T08:13:57;26.60;91.90
27559;DHT22;15002;52.028;5.670;2023-08-08T08:16:23;26.50;92.40
27559;DHT22;15002;52.028;5.670;2023-08-08T08:18:49;26.10;91.70
27559;DHT22;15002;52.028;5.670;2023-08-08T08:21:14;25.70;92.90
27559;DHT22;15002;52.028;5.670;2023-08-08T08:23:43;25.40;94.40
27559;DHT22;15002;52.028;5.670;2023-08-08T08:26:08;25.10;94.70
27559;DHT22;15002;52.028;5.670;2023-08-08T08:28:34;25.30;93.80
27559;DHT22;15002;52.028;5.670;2023-08-08T08:31:06;25.10;93.60
27559;DHT22;15002;52.028;5.670;2023-08-08T08:33:33;25.00;94.60
27559;DHT22;15002;52.028;5.670;2023-08-08T08:35:59;25.10;93.40
27559;DHT22;15002;52.028;5.670;2023-08-08T08:38:27;25.20;94.90
27559;DHT22;15002;52.028;5.670;2023-08-08T08:40:54;25.60;92.80
27559;DHT22;15002;52.028;5.670;2023-08-08T08:43:21;25.50;92.70
27559;DHT22;15002;52.028;5.670;2023-08-08T08:45:52;25.40;93.20
27559;DHT22;15002;52.028;5.670;2023-08-08T08:48:18;25.40;92.80
27559;DHT22;15002;52.028;5.670;2023-08-08T08:50:47;25.10;94.30
27559;DHT22;15002;52.028;5.670;2023-08-08T08:53:13;24.90;94.00
27559;DHT22;15002;52.028;5.670;2023-08-08T08:55:40;24.50;94.80
27559;DHT22;15002;52.028;5.670;2023-08-08T08:58:06;24.30;96.10
27559;DHT22;15002;52.028;5.670;2023-08-08T09:00:33;24.60;95.30
27559;DHT22;15002;52.028;5.670;2023-08-08T09:02:59;24.60;94.30
27559;DHT22;15002;52.028;5.670;2023-08-08T09:05:26;25.00;92.10
27559;DHT22;15002;52.028;5.670;2023-08-08T09:07:52;25.10;92.20
27559;DHT22;15002;52.028;5.670;2023-08-08T09:10:18;25.00;92.00
27559;DHT22;15002;52.028;5.670;2023-08-08T09:12:45;25.00;92.50
27559;DHT22;15002;52.028;5.670;2023-08-08T09:15:11;24.90;93.10
27559;DHT22;15002;52.028;5.670;2023-08-08T09:17:43;24.70;93.30
27559;DHT22;15002;52.028;5.670;2023-08-08T09:20:11;24.60;92.90
27559;DHT22;15002;52.028;5.670;2023-08-08T09:22:37;24.50;93.30
27559;DHT22;15002;52.028;5.670;2023-08-08T09:25:07;24.30;93.10
27559;DHT22;15002;52.028;5.670;2023-08-08T09:27:34;24.60;92.10
27559;DHT22;15002;52.028;5.670;2023-08-08T09:30:00;24.50;91.90
27559;DHT22;15002;52.028;5.670;2023-08-08T09:32:30;24.40;92.60
27559;DHT22;15002;52.028;5.670;2023-08-08T09:34:57;24.60;92.80
27559;DHT22;15002;52.028;5.670;2023-08-08T09:37:23;24.80;92.30
27559;DHT22;15002;52.028;5.670;2023-08-08T09:40:03;24.60;92.30
27559;DHT22;15002;52.028;5.670;2023-08-08T09:42:30;24.60;91.80
27559;DHT22;15002;52.028;5.670;2023-08-08T09:44:57;24.40;92.70
27559;DHT22;15002;52.028;5.670;2023-08-08T09:47:23;24.80;91.90
27559;DHT22;15002;52.028;5.670;2023-08-08T09:49:49;24.90;91.20
27559;DHT22;15002;52.028;5.670;2023-08-08T09:52:15;24.60;91.30
27559;DHT22;15002;52.028;5.670;2023-08-08T09:54:41;24.60;91.80
27559;DHT22;15002;52.028;5.670;2023-08-08T09:57:07;24.70;91.90
27559;DHT22;15002;52.028;5.670;2023-08-08T09:59:34;24.80;92.10
27559;DHT22;15002;52.028;5.670;2023-08-08T10:02:01;24.80;90.80
27559;DHT22;15002;52.028;5.670;2023-08-08T10:04:27;24.80;90.90
27559;DHT22;15002;52.028;5.670;2023-08-08T10:06:53;24.50;90.60
27559;DHT22;15002;52.028;5.670;2023-08-08T10:09:19;24.30;91.50
27559;DHT22;15002;52.028;5.670;2023-08-08T10:11:45;24.50;92.00
27559;DHT22;15002;52.028;5.670;2023-08-08T10:14:11;24.70;91.50
27559;DHT22;15002;52.028;5.670;2023-08-08T10:16:41;24.90;91.10
27559;DHT22;15002;52.028;5.670;2023-08-08T10:19:07;24.80;91.00
27559;DHT22;15002;52.028;5.670;2023-08-08T10:21:43;24.30;91.10
27559;DHT22;15002;52.028;5.670;2023-08-08T10:24:09;24.40;92.40
27559;DHT22;15002;52.028;5.670;2023-08-08T10:26:58;24.20;91.30
27559;DHT22;15002;52.028;5.670;2023-08-08T10:29:26;24.10;91.70
27559;DHT22;15002;52.028;5.670;2023-08-08T10:32:03;24.30;91.10
27559;DHT22;15002;52.028;5.670;2023-08-08T10:34:43;24.10;91.10
27559;DHT22;15002;52.028;5.670;2023-08-08T10:37:16;24.30;92.00
27559;DHT22;15002;52.028;5.670;2023-08-08T10:39:58;24.70;91.70
27559;DHT22;15002;52.028;5.670;2023-08-08T10:42:25;24.70;91.40
27559;DHT22;15002;52.028;5.670;2023-08-08T10:44:54;24.70;92.20
27559;DHT22;15002;52.028;5.670;2023-08-08T10:47:36;24.70;92.00
27559;DHT22;15002;52.028;5.670;2023-08-08T10:50:06;24.90;90.80
27559;DHT22;15002;52.028;5.670;2023-08-08T10:52:37;25.20;89.90
27559;DHT22;15002;52.028;5.670;2023-08-08T10:55:03;24.80;90.20
27559;DHT22;15002;52.028;5.670;2023-08-08T10:57:30;24.80;90.90
27559;DHT22;15002;52.028;5.670;2023-08-08T11:00:16;24.60;90.20
27559;DHT22;15002;52.028;5.670;2023-08-08T11:02:41;24.60;90.60
27559;DHT22;15002;52.028;5.670;2023-08-08T11:05:09;24.60;90.90
27559;DHT22;15002;52.028;5.670;2023-08-08T11:07:35;24.60;90.80
27559;DHT22;15002;52.028;5.670;2023-08-08T11:10:03;24.70;89.40
27559;DHT22;15002;52.028;5.670;2023-08-08T11:12:29;24.40;90.50
27559;DHT22;15002;52.028;5.670;2023-08-08T11:14:55;24.40;90.60
27559;DHT22;15002;52.028;5.670;2023-08-08T11:17:20;24.10;91.60
27559;DHT22;15002;52.028;5.670;2023-08-08T11:19:46;24.00;91.90
27559;DHT22;15002;52.028;5.670;2023-08-08T11:22:12;23.90;91.90
27559;DHT22;15002;52.028;5.670;2023-08-08T11:24:37;23.90;92.30
27559;DHT22;15002;52.028;5.670;2023-08-08T11:27:03;23.90;92.30
27559;DHT22;15002;52.028;5.670;2023-08-08T11:29:29;23.90;92.70
27559;DHT22;15002;52.028;5.670;2023-08-08T11:31:59;24.20;92.60
27559;DHT22;15002;52.028;5.670;2023-08-08T11:34:24;24.20;92.30
27559;DHT22;15002;52.028;5.670;2023-08-08T11:36:51;24.30;92.00
27559;DHT22;15002;52.028;5.670;2023-08-08T11:39:19;24.60;91.10
27559;DHT22;15002;52.028;5.670;2023-08-08T11:41:45;24.30;91.40
27559;DHT22;15002;52.028;5.670;2023-08-08T11:44:11;24.30;90.50
27559;DHT22;15002;52.028;5.670;2023-08-08T11:46:46;24.30;91.80
27559;DHT22;15002;52.028;5.670;2023-08-08T11:49:14;24.70;90.70
27559;DHT22;15002;52.028;5.670;2023-08-08T11:51:43;24.40;90.10
27559;DHT22;15002;52.028;5.670;2023-08-08T11:54:08;24.70;91.00
27559;DHT22;15002;52.028;5.670;2023-08-08T11:56:35;24.70;90.90
27559;DHT22;15002;52.028;5.670;2023-08-08T11:59:02;24.70;90.50
27559;DHT22;15002;52.028;5.670;2023-08-08T12:01:28;24.60;90.30
27559;DHT22;15002;52.028;5.670;2023-08-08T12:03:56;24.70;91.00
27559;DHT22;15002;52.028;5.670;2023-08-08T12:06:22;24.70;91.20
27559;DHT22;15002;52.028;5.670;2023-08-08T12:08:54;24.90;90.80
27559;DHT22;15002;52.028;5.670;2023-08-08T12:11:20;24.80;90.20
27559;DHT22;15002;52.028;5.670;2023-08-08T12:13:46;24.60;90.70
27559;DHT22;15002;52.028;5.670;2023-08-08T12:16:14;24.70;90.90
27559;DHT22;15002;52.028;5.670;2023-08-08T12:18:40;24.40;90.80
27559;DHT22;15002;52.028;5.670;2023-08-08T12:21:07;24.60;90.60
27559;DHT22;15002;52.028;5.670;2023-08-08T12:23:34;24.70;90.40
27559;DHT22;15002;52.028;5.670;2023-08-08T12:26:03;24.70;90.20
27559;DHT22;15002;52.028;5.670;2023-08-08T12:28:30;24.60;91.20
27559;DHT22;15002;52.028;5.670;2023-08-08T12:30:56;24.40;91.80
27559;DHT22;15002;52.028;5.670;2023-08-08T12:33:22;24.60;91.90
27559;DHT22;15002;52.028;5.670;2023-08-08T12:35:48;24.70;91.10
27559;DHT22;15002;52.028;5.670;2023-08-08T12:38:14;24.60;90.90
27559;DHT22;15002;52.028;5.670;2023-08-08T12:40:40;24.50;90.70
27559;DHT22;15002;52.028;5.670;2023-08-08T12:43:06;24.40;91.00
27559;DHT22;15002;52.028;5.670;2023-08-08T12:45:31;24.50;91.30
27559;DHT22;15002;52.028;5.670;2023-08-08T12:47:57;24.50;91.10
27559;DHT22;15002;52.028;5.670;2023-08-08T12:50:24;24.50;91.10
27559;DHT22;15002;52.028;5.670;2023-08-08T12:52:50;24.60;91.00
27559;DHT22;15002;52.028;5.670;2023-08-08T12:55:15;24.30;91.70
27559;DHT22;15002;52.028;5.670;2023-08-08T12:57:43;24.40;92.30
27559;DHT22;15002;52.028;5.670;2023-08-08T13:00:10;24.60;91.70
27559;DHT22;15002;52.028;5.670;2023-08-08T13:02:37;24.30;91.60
27559;DHT22;15002;52.028;5.670;2023-08-08T13:05:03;24.20;92.00
27559;DHT22;15002;52.028;5.670;2023-08-08T13:07:29;24.10;92.30
27559;DHT22;15002;52.028;5.670;2023-08-08T13:09:55;24.10;92.30
27559;DHT22;15002;52.028;5.670;2023-08-08T13:12:20;24.00;92.80
27559;DHT22;15002;52.028;5.670;2023-08-08T13:14:47;24.20;92.70
27559;DHT22;15002;52.028;5.670;2023-08-08T13:17:12;24.00;93.20
27559;DHT22;15002;52.028;5.670;2023-08-08T13:19:39;24.20;92.90
27559;DHT22;15002;52.028;5.670;2023-08-08T13:22:05;24.20;92.90
27559;DHT22;15002;52.028;5.670;2023-08-08T13:24:30;24.20;92.60
27559;DHT22;15002;52.028;5.670;2023-08-08T13:26:56;24.30;92.90
27559;DHT22;15002;52.028;5.670;2023-08-08T13:29:21;24.10;93.10
27559;DHT22;15002;52.028;5.670;2023-08-08T13:31:47;24.10;93.10
27559;DHT22;15002;52.028;5.670;2023-08-08T13:34:13;24.20;93.10
27559;DHT22;15002;52.028;5.670;2023-08-08T13:36:39;24.10;93.70
27559;DHT22;15002;52.028;5.670;2023-08-08T13:39:05;24.10;93.20
27559;DHT22;15002;52.028;5.670;2023-08-08T13:41:31;24.10;92.80
27559;DHT22;15002;52.028;5.670;2023-08-08T13:43:57;23.60;93.40
27559;DHT22;15002;52.028;5.670;2023-08-08T13:46:23;23.90;93.20
27559;DHT22;15002;52.028;5.670;2023-08-08T13:48:48;23.70;94.00
27559;DHT22;15002;52.028;5.670;2023-08-08T13:51:14;23.60;94.30
27559;DHT22;15002;52.028;5.670;2023-08-08T13:53:39;23.50;94.70
27559;DHT22;15002;52.028;5.670;2023-08-08T13:56:05;23.70;94.60
27559;DHT22;15002;52.028;5.670;2023-08-08T13:58:31;23.90;94.30
27559;DHT22;15002;52.028;5.670;2023-08-08T14:00:57;24.10;93.80
27559;DHT22;15002;52.028;5.670;2023-08-08T14:03:23;24.00;94.00
27559;DHT22;15002;52.028;5.670;2023-08-08T14:05:50;24.00;93.60
27559;DHT22;15002;52.028;5.670;2023-08-08T14:08:18;23.90;93.50
27559;DHT22;15002;52.028;5.670;2023-08-08T14:10:44;24.10;94.00
27559;DHT22;15002;52.028;5.670;2023-08-08T14:13:10;24.30;93.70
27559;DHT22;15002;52.028;5.670;2023-08-08T14:15:37;24.10;93.80
27559;DHT22;15002;52.028;5.670;2023-08-08T14:18:03;24.10;93.90
27559;DHT22;15002;52.028;5.670;2023-08-08T14:20:28;24.30;93.40
27559;DHT22;15002;52.028;5.670;2023-08-08T14:22:54;24.10;92.60
27559;DHT22;15002;52.028;5.670;2023-08-08T14:25:20;24.10;92.50
27559;DHT22;15002;52.028;5.670;2023-08-08T14:27:46;24.10;92.70
27559;DHT22;15002;52.028;5.670;2023-08-08T14:30:12;24.10;92.40
27559;DHT22;15002;52.028;5.670;2023-08-08T14:32:37;23.90;92.70
27559;DHT22;15002;52.028;5.670;2023-08-08T14:35:03;23.80;92.90
27559;DHT22;15002;52.028;5.670;2023-08-08T14:37:30;23.70;92.60
27559;DHT22;15002;52.028;5.670;2023-08-08T14:39:56;23.50;93.80
27559;DHT22;15002;52.028;5.670;2023-08-08T14:42:22;23.30;94.20
27559;DHT22;15002;52.028;5.670;2023-08-08T14:44:48;23.70;93.30
27559;DHT22;15002;52.028;5.670;2023-08-08T14:47:14;23.60;93.30
27559;DHT22;15002;52.028;5.670;2023-08-08T14:49:39;23.70;93.00
27559;DHT22;15002;52.028;5.670;2023-08-08T14:52:05;23.70;93.50
27559;DHT22;15002;52.028;5.670;2023-08-08T14:54:31;23.80;93.60
27559;DHT22;15002;52.028;5.670;2023-08-08T14:56:56;23.90;92.60
27559;DHT22;15002;52.028;5.670;2023-08-08T14:59:22;23.90;92.70
27559;DHT22;15002;52.028;5.670;2023-08-08T15:01:48;23.60;92.90
27559;DHT22;15002;52.028;5.670;2023-08-08T15:04:14;23.40;93.20
27559;DHT22;15002;52.028;5.670;2023-08-08T15:06:40;23.60;92.70
27559;DHT22;15002;52.028;5.670;2023-08-08T15:09:06;23.70;92.50
27559;DHT22;15002;52.028;5.670;2023-08-08T15:11:32;23.60;92.30
27559;DHT22;15002;52.028;5.670;2023-08-08T15:13:58;23.60;92.30
27559;DHT22;15002;52.028;5.670;2023-08-08T15:16:23;23.30;93.20
27559;DHT22;15002;52.028;5.670;2023-08-08T15:18:49;23.40;93.00
27559;DHT22;15002;52.028;5.670;2023-08-08T15:21:15;23.70;92.80
27559;DHT22;15002;52.028;5.670;2023-08-08T15:23:45;23.90;92.80
27559;DHT22;15002;52.028;5.670;2023-08-08T15:26:11;24.10;92.20